This is the latest recevied weather packets stored in our database for station/object N7WSS. If no packets are shown the sender has not sent any weather packets the latest 10 day(s).
| Time | Temp. | Humidity | Pressure | Rain* | Wind** | Luminosity | Snow |
|---|---|---|---|---|---|---|---|
| 1787500700 | 33.33° C | 34% | 1015.7 hPa | 0 mm | - | - | - |
| 1787500396 | 33.33° C | 33% | 1016.1 hPa | 0 mm | - | - | - |
| 1787500095 | 33.33° C | 34% | 1016 hPa | 0 mm | - | - | - |
| 1787499790 | 33.89° C | 33% | 1015.9 hPa | 0 mm | - | - | - |
| 1787499489 | 33.33° C | 33% | 1015.9 hPa | 0 mm | - | - | - |
| 1787499186 | 32.78° C | 35% | 1016 hPa | 0 mm | - | - | - |
| 1787498882 | 32.78° C | 35% | 1015.9 hPa | 0 mm | - | - | - |
| 1787498580 | 33.33° C | 35% | 1016.1 hPa | 0 mm | - | - | - |
| 1787498275 | 33.33° C | 35% | 1016 hPa | 0 mm | - | - | - |
| 1787497971 | 32.78° C | 36% | 1016 hPa | 0 mm | - | - | - |
| 1787497666 | 32.78° C | 36% | 1016 hPa | 0 mm | - | - | - |
| 1787497362 | 31.67° C | 40% | 1016.1 hPa | 0 mm | - | - | - |
| 1787497061 | 32.22° C | 39% | 1015.9 hPa | 0 mm | - | - | - |
| 1787496755 | 31.67° C | 38% | 1016.2 hPa | 0 mm | - | - | - |
| 1787496451 | 31.67° C | 38% | 1015.9 hPa | 0 mm | - | - | - |
| 1787496146 | 30.56° C | 40% | 1015.6 hPa | 0 mm | - | - | - |
| 1787495846 | 30.56° C | 41% | 1015.9 hPa | 0 mm | - | - | - |
| 1787495542 | 30° C | 42% | 1015.7 hPa | 0 mm | - | - | - |
| 1787495238 | 30° C | 40% | 1015.9 hPa | 0 mm | - | - | - |
| 1787494934 | 29.44° C | 42% | 1015.5 hPa | 0 mm | - | - | - |
| 1787494633 | 28.33° C | 46% | 1015.5 hPa | 0 mm | - | - | - |
| 1787494329 | 27.22° C | 50% | 1015.4 hPa | 0 mm | - | - | - |
| 1787494025 | 26.67° C | 51% | 1015.5 hPa | 0 mm | - | - | - |
| 1787493721 | 26.67° C | 51% | 1015.4 hPa | 0 mm | - | - | - |
| 1787493420 | 26.67° C | 54% | 1015.4 hPa | 0 mm | - | - | - |
* Rain latest hour (hover to see other rain measurements)
** Current wind speed in m/s (hover to see current wind gust speed)